Mauston, WI (53948)

05:43 PM CST del 21 Febbraio 2017 (GMT -0600)
Juneau County Weather | | Change Station
Avvisi attivi: Flood Warning

Alt. 873 ft 43.80 °N, 90.07 °W | Updated 4 seconds ago

Parzialmente nuvoloso
Parzialmente nuvoloso
57.4 °F
Sembra 57.4 °F
N
2.4
Vento Variabile Vento da Sud
Gusts 4.6 mph

Oggi
Massima -- | Minima -- °F
--% Possibilità di precip.
Ieri
Massima -- | Minima -- °F
Precip. -- in
Pressione 29.85 in
Visibilità 10.0 miglia
Nuvole Molto nuvoloso 15000 ft
Molto nuvoloso 25000 ft
Punto di rugiada 37 °F
Umidità 46%
Piovosità 0.00 in
Spessore del manto nevoso Non disponibile.
6:49 AM 5:38 PM
Luna calante, 22% visible
METAR KVOK 212258Z VRB03KT 10SM BKN150 BKN250 15/00 A2983 RMK AO2A SLP107
Pressione 29.85 in
Visibilità 10.0 miglia
Nuvole Molto nuvoloso 15000 ft
Molto nuvoloso 25000 ft
Punto di rugiada 37 °F
Umidità 46%
Piovosità 0.00 in
Spessore del manto nevoso Non disponibile.
6:49 AM 5:38 PM
Luna calante, 22% visible
METAR KVOK 212258Z VRB03KT 10SM BKN150 BKN250 15/00 A2983 RMK AO2A SLP107

Get Your Daily Forecast Email!

Thanks for signing up!

Be on the lookout for a verification email in your inbox.

You'll start receiving the daily forecast at 8 AM.

×

10-Day Weather Forecast

Almanac

Astronomia

Feb. 21, 2017 Alba Tramonto
Ora attuale
Crepuscolo civile
Crepuscolo nautico
Crepuscolo astronomico
Luna
Estensione della luce visibile
Lunghezza del giorno
Tomorrow will be .
, % of the Moon is Illuminated

Gli estremi di oggi

State Highs State Lows

Community

WunderPhotos

Upload Photos

1,962,540 foto caricate!

WunderBlog® & News

Nearby

Qualità dell'aria

  Qualità dell'aria Indice AQ Inquinante
Not available.

Profondità neve

Stazione Profondità Altitudine

Attività sismica

Città  Distanza Mag. Data & Ora
Minimo Magnitudo Mostrato è 2.5.

Temperature delle acque costiere

Località Temperatura

Stations

Stazioni meteo nelle vicinanze

Ubicazione della stazione Temp. Raffreddamento del vento Punto di rugiada Umidità Vento Precip. Alt. Aggiornato Tipo
                   

Watches & Warnings

Flood Warning
Issued: 17:27 CST Feb. 21, 2017 – National Weather Service

The Flood Warning continues for
the Yellow River at Necedah.
* From late Wednesday night to Tuesday February 28... or until the
warning is cancelled.
* At 4:30 PM Tuesday the stage was 11.2 feet.
* Flood stage is 15.0 feet.
* Moderate flooding is forecast.
* Forecast... rise above flood stage by Thursday morning and continue
to rise to near 17.1 feet by Friday morning. The river is expected
to fall below flood stage Monday.


Lat... Lon 4415 9009 4415 9014 4395 9006 4396 9003


Hollan